ADDS METAR Data INFO
IDs: Format: Raw Decoded Include TAF

Data at: 1510 UTC 23 Oct 2017

K6A2 231455Z AUTO 17007G18KT 1SM BKN007 OVC011 22/21 A2986 RMK AO2
K6A2 231435Z AUTO 17010G20KT 2SM SCT005 OVC011 22/21 A2987 RMK AO2 LTG DSNT N
K6A2 231415Z AUTO 18015G20KT 150V210 4SM SCT005 BKN010 OVC021 22/21 A2987 RMK AO2
K6A2 231355Z AUTO 16010G21KT 140V200 7SM SCT008 OVC015 22/21 A2988 RMK AO2
K6A2 231335Z AUTO 17007KT 1/4SM OVC004 21/21 A2990 RMK AO2
K6A2 231315Z AUTO 15008KT 1 3/4SM BKN004 OVC010 21/21 A2991 RMK AO2
K6A2 231255Z AUTO 15004KT 1 1/2SM OVC006 21/21 A2991 RMK AO2 VIS 1V2 1/2
K6A2 231235Z AUTO 16007KT 7SM SCT005 BKN009 OVC070 21/21 A2992 RMK AO2
K6A2 231215Z AUTO 16006KT 10SM SCT007 SCT015 OVC085 21/21 A2993 RMK AO2
K6A2 231200Z AUTO 18004KT 10SM SCT005 SCT012 OVC085 21/20 A2993 RMK AO2
K6A2 231135Z AUTO 18005KT 10SM SCT005 BKN009 OVC065 21/21 A2995 RMK AO2
K6A2 231115Z AUTO 17008KT 10SM BKN005 OVC009 21/21 A2995 RMK AO2
K6A2 231055Z AUTO 17005KT 10SM BKN004 OVC011 21/21 A2995 RMK AO2 LTG DSNT E
K6A2 231035Z AUTO 17006KT 7SM BKN006 BKN009 OVC013 21/21 A2996 RMK AO2
K6A2 231015Z AUTO 18005KT 10SM BKN004 BKN027 BKN044 21/21 A2996 RMK AO2
K6A2 230955Z AUTO 14004KT 10SM SCT037 SCT055 BKN090 21/21 A2995 RMK AO2
K6A2 230935Z AUTO 11003KT 5SM SCT043 BKN070 OVC090 21/21 A2996 RMK AO2 LTG DSNT SE
K6A2 230915Z AUTO 13006KT 10SM BKN004 BKN040 OVC095 21/21 A2998 RMK AO2
K6A2 230855Z AUTO 14004KT 7SM VCTS OVC004 21/21 A3000 RMK AO2
K6A2 230835Z AUTO 13004KT 1SM VCTS OVC004 21/21 A3000 RMK AO2 LTG DSNT SE
K6A2 230815Z AUTO 13005KT 10SM OVC002 21/20 A3000 RMK AO2
K6A2 230755Z AUTO 12004KT 7SM OVC002 21/20 A3002 RMK AO2
K6A2 230735Z AUTO 11005KT 5SM OVC002 21/20 A3003 RMK AO2 LTG DSNT S
K6A2 230715Z AUTO 13004KT 7SM OVC004 21/20 A3004 RMK AO2
K6A2 230655Z AUTO 12004KT 5SM OVC004 21/20 A3005 RMK AO2 LTG DSNT SE
K6A2 230635Z AUTO 13004KT 7SM OVC004 21/20 A3007 RMK AO2
K6A2 230615Z AUTO 12006KT 7SM OVC004 21/20 A3007 RMK AO2
K6A2 230600Z AUTO 10003KT 7SM OVC004 21/20 A3007 RMK AO2
K6A2 230535Z AUTO 12004KT 7SM OVC002 21/20 A3009 RMK AO2
K6A2 230515Z AUTO 14007KT 7SM OVC002 21/20 A3011 RMK AO2
K6A2 230455Z AUTO 14004KT 4SM OVC002 21/20 A3011 RMK AO2
K6A2 230435Z AUTO 13005KT 4SM OVC002 21/20 A3012 RMK AO2
K6A2 230415Z AUTO 13004KT 3SM OVC004 21/20 A3013 RMK AO2
K6A2 230355Z AUTO 11005KT 3SM OVC004 21/20 A3014 RMK AO2
K6A2 230335Z AUTO 11004KT 5SM OVC004 21/20 A3014 RMK AO2
K6A2 230315Z AUTO 12004KT 7SM OVC004 21/20 A3015 RMK AO2 LTG DSNT S
K6A2 230255Z AUTO 12006KT 10SM OVC006 21/20 A3015 RMK AO2
K6A2 230235Z AUTO 11004KT 10SM OVC006 21/20 A3015 RMK AO2
K6A2 230215Z AUTO 12005KT 10SM OVC006 21/20 A3014 RMK AO2
K6A2 230200Z AUTO 11004KT 10SM OVC008 21/20 A3014 RMK AO2
K6A2 230135Z AUTO 09005KT 10SM OVC008 21/20 A3014 RMK AO2
K6A2 230115Z AUTO 10003KT 10SM OVC010 21/20 A3014 RMK AO2
K6A2 230055Z AUTO 09006KT 10SM OVC010 21/19 A3014 RMK AO2
K6A2 230035Z AUTO 13003KT 10SM OVC010 21/19 A3015 RMK AO2
K6A2 230015Z AUTO 09005KT 10SM OVC012 22/19 A3015 RMK AO2
K6A2 222355Z AUTO 12005KT 10SM OVC014 22/19 A3014 RMK AO2
K6A2 222335Z AUTO 11006KT 10SM OVC014 22/20 A3014 RMK AO2
K6A2 222315Z AUTO 11005KT 10SM BKN014 22/20 A3014 RMK AO2
K6A2 222255Z AUTO 10004KT 10SM SCT014 SCT032 22/20 A3014 RMK AO2
K6A2 222235Z AUTO 13006KT 10SM CLR 23/20 A3014 RMK AO2
K6A2 222215Z AUTO 11003KT 10SM SCT039 24/20 A3014 RMK AO2
K6A2 222155Z AUTO 13006KT 10SM SCT034 SCT041 SCT060 25/19 A3014 RMK AO2
K6A2 222135Z AUTO 00000KT 10SM SCT060 26/19 A3014 RMK AO2
K6A2 222115Z AUTO 12004KT 10SM SCT049 26/19 A3014 RMK AO2
K6A2 222055Z AUTO 13007KT 10SM SCT047 BKN055 27/18 A3015 RMK AO2
K6A2 222035Z AUTO 12004KT 10SM SCT037 SCT047 SCT060 27/19 A3015 RMK AO2
K6A2 222015Z AUTO 13005KT 10SM SCT040 SCT049 BKN070 26/19 A3015 RMK AO2
K6A2 221955Z AUTO 09003KT 10SM SCT038 SCT044 BKN050 26/18 A3015 RMK AO2
K6A2 221935Z AUTO 09006KT 10SM SCT041 SCT050 SCT060 27/19 A3016 RMK AO2
K6A2 221915Z AUTO 13004KT 10SM SCT033 SCT041 SCT060 26/19 A3017 RMK AO2
K6A2 221855Z AUTO 09004KT 10SM SCT033 SCT040 SCT060 27/18 A3017 RMK AO2
K6A2 221835Z AUTO 13008KT 10SM SCT033 SCT043 SCT060 27/18 A3018 RMK AO2
K6A2 221815Z AUTO 13005G14KT 10SM SCT030 SCT036 BKN050 27/18 A3019 RMK AO2
K6A2 221755Z AUTO 12005KT 10SM BKN030 BKN037 OVC047 27/18 A3020 RMK AO2
K6A2 221735Z AUTO 12007KT 10SM SCT035 BKN045 25/18 A3021 RMK AO2
K6A2 221715Z AUTO 15009KT 10SM SCT025 SCT037 BKN045 26/18 A3022 RMK AO2
K6A2 221655Z AUTO 14005G08KT 10SM BKN023 BKN034 BKN048 26/19 A3022 RMK AO2
K6A2 221635Z AUTO 12007KT 10SM BKN023 BKN034 BKN047 25/19 A3024 RMK AO2
K6A2 221615Z AUTO 14008G14KT 10SM CLR 25/18 A3024 RMK AO2
K6A2 221555Z AUTO 14007KT 10SM CLR 25/18 A3025 RMK AO2
K6A2 221535Z AUTO 13004KT 10SM SCT025 23/18 A3025 RMK AO2
K6A2 221515Z AUTO 13005KT 10SM BKN027 BKN034 BKN055 23/18 A3025 RMK AO2
K6A2 221455Z AUTO 11004KT 10SM BKN025 BKN036 BKN055 21/18 A3026 RMK AO2
K6A2 221435Z AUTO 13005KT 10SM SCT022 SCT029 SCT033 21/18 A3026 RMK AO2
K6A2 221415Z AUTO 13004KT 10SM BKN060 20/17 A3026 RMK AO2
K6A2 221355Z AUTO 10006KT 10SM SCT027 SCT032 OVC060 18/17 A3027 RMK AO2
K6A2 221335Z AUTO 09003KT 10SM SCT005 SCT024 OVC060 18/16 A3027 RMK AO2
K6A2 221315Z AUTO 08003KT 10SM SCT005 SCT049 OVC060 17/16 A3027 RMK AO2
K6A2 221255Z AUTO 00000KT 10SM SCT005 OVC060 17/16 A3026 RMK AO2
K6A2 221235Z AUTO 07004KT 10SM SCT005 SCT045 OVC060 17/16 A3026 RMK AO2
K6A2 221215Z AUTO 09003KT 10SM SCT005 BKN060 16/15 A3026 RMK AO2
K6A2 221155Z AUTO 08004KT 10SM SCT060 16/15 A3025 RMK AO2
K6A2 221135Z AUTO 07003KT 10SM BKN060 16/15 A3025 RMK AO2
K6A2 221115Z AUTO 06003KT 10SM OVC050 16/15 A3024 RMK AO2
K6A2 221055Z AUTO 07003KT 10SM OVC050 16/15 A3024 RMK AO2
K6A2 221035Z AUTO 00000KT 10SM BKN050 16/15 A3024 RMK AO2
K6A2 221015Z AUTO 08003KT 10SM CLR 15/14 A3024 RMK AO2
K6A2 220955Z AUTO 06003KT 10SM CLR 15/13 A3024 RMK AO2
K6A2 220935Z AUTO 06003KT 10SM CLR 15/13 A3024 RMK AO2
K6A2 220915Z AUTO 07003KT 10SM CLR 15/13 A3023 RMK AO2
K6A2 220855Z AUTO 00000KT 10SM CLR 15/13 A3024 RMK AO2
K6A2 220835Z AUTO 00000KT 10SM CLR 15/13 A3025 RMK AO2
K6A2 220815Z AUTO 00000KT 10SM CLR 15/13 A3024 RMK AO2
K6A2 220755Z AUTO 06003KT 10SM CLR 15/13 A3024 RMK AO2
K6A2 220735Z AUTO 06003KT 10SM CLR 15/13 A3024 RMK AO2
K6A2 220715Z AUTO 05003KT 10SM CLR 16/13 A3024 RMK AO2
K6A2 220655Z AUTO 07003KT 10SM CLR 16/13 A3025 RMK AO2
K6A2 220635Z AUTO 00000KT 10SM CLR 16/12 A3025 RMK AO2
K6A2 220615Z AUTO 00000KT 10SM CLR 16/12 A3026 RMK AO2
K6A2 220555Z AUTO 00000KT 10SM CLR 17/12 A3026 RMK AO2
K6A2 220535Z AUTO 00000KT 10SM CLR 16/13 A3026 RMK AO2
K6A2 220515Z AUTO 05003KT 10SM CLR 16/13 A3027 RMK AO2
K6A2 220455Z AUTO 05003KT 10SM CLR 17/13 A3027 RMK AO2
K6A2 220435Z AUTO 00000KT 10SM CLR 16/13 A3027 RMK AO2
K6A2 220415Z AUTO 00000KT 10SM CLR 17/13 A3028 RMK AO2
K6A2 220355Z AUTO 00000KT 10SM CLR 17/13 A3028 RMK AO2
K6A2 220335Z AUTO 00000KT 10SM CLR 18/12 A3028 RMK AO2
K6A2 220315Z AUTO 00000KT 10SM CLR 18/13 A3028 RMK AO2